Time;durP1;ratioP1;P1;durP2;ratioP2;P2;SDS_P1;SDS_P2;PMS_P1;PMS_P2;Temp;Humidity;BMP_temperature;BMP_pressure;BME280_temperature;BME280_humidity;BME280_pressure;Samples;Min_cycle;Max_cycle;Signal;HPM_P1;HPM_P2
2022/06/30 00:00:01;;;;;;;27.33;16.40;;;;;;;;;;5073364;28;20455;-70
2022/06/30 00:02:28;;;;;;;17.93;15.47;;;;;;;;;;5073300;28;20848;-70
2022/06/30 00:04:55;;;;;;;20.90;15.90;;;;;;;;;;5073162;28;20453;-70
2022/06/30 00:07:22;;;;;;;17.47;15.40;;;;;;;;;;5073229;28;20933;-70
2022/06/30 00:09:49;;;;;;;22.80;15.77;;;;;;;;;;5073211;28;20452;-70
2022/06/30 00:12:16;;;;;;;17.30;15.13;;;;;;;;;;5073009;28;20984;-70
2022/06/30 00:14:45;;;;;;;16.13;14.37;;;;;;;;;;5073034;28;20452;-70
2022/06/30 00:17:12;;;;;;;19.23;15.30;;;;;;;;;;5073100;28;20854;-70
2022/06/30 00:19:39;;;;;;;15.87;13.60;;;;;;;;;;5073368;28;20818;-70
2022/06/30 00:22:07;;;;;;;16.03;14.07;;;;;;;;;;5073147;28;20475;-70
2022/06/30 00:24:35;;;;;;;16.17;14.07;;;;;;;;;;5072562;28;20464;-70
2022/06/30 00:27:02;;;;;;;15.60;13.90;;;;;;;;;;5073167;28;20452;-70
2022/06/30 00:29:29;;;;;;;20.10;13.00;;;;;;;;;;5073057;28;20944;-70
2022/06/30 00:31:57;;;;;;;17.77;14.60;;;;;;;;;;5072970;28;20467;-70
2022/06/30 00:34:24;;;;;;;19.13;14.20;;;;;;;;;;5072643;28;20456;-70
2022/06/30 00:36:51;;;;;;;17.00;14.13;;;;;;;;;;5072879;28;20505;-70
2022/06/30 00:39:18;;;;;;;17.87;13.90;;;;;;;;;;5073826;28;20804;-70
2022/06/30 00:41:45;;;;;;;16.13;14.50;;;;;;;;;;5079571;28;20471;-70
2022/06/30 00:44:13;;;;;;;18.23;14.73;;;;;;;;;;5079462;28;20458;-70
2022/06/30 00:46:40;;;;;;;16.53;14.33;;;;;;;;;;5079637;28;20508;-70
2022/06/30 00:49:09;;;;;;;18.70;13.97;;;;;;;;;;5079616;28;20443;-70
2022/06/30 00:51:36;;;;;;;16.67;13.87;;;;;;;;;;5079642;28;20463;-70
2022/06/30 00:54:04;;;;;;;20.23;14.40;;;;;;;;;;5078659;28;20463;-70
2022/06/30 00:56:31;;;;;;;20.00;14.97;;;;;;;;;;5079599;28;20459;-70
2022/06/30 00:59:02;;;;;;;19.50;15.60;;;;;;;;;;5079448;28;21035;-70
2022/06/30 01:01:29;;;;;;;18.53;15.33;;;;;;;;;;5079312;28;21002;-70
2022/06/30 01:03:57;;;;;;;21.60;14.67;;;;;;;;;;5079291;28;20458;-70
2022/06/30 01:06:25;;;;;;;18.33;15.10;;;;;;;;;;5079235;28;20538;-69
2022/06/30 01:08:53;;;;;;;17.07;13.93;;;;;;;;;;5079327;28;20936;-70
2022/06/30 01:14:05;;;;;;;18.77;16.20;;;;;;;;;;5079148;28;20423;-70
2022/06/30 01:16:32;;;;;;;15.40;13.73;;;;;;;;;;5079506;28;20451;-70
2022/06/30 01:18:59;;;;;;;16.53;13.47;;;;;;;;;;5079121;28;20870;-70
2022/06/30 01:21:29;;;;;;;18.97;14.03;;;;;;;;;;5079067;28;20467;-70
2022/06/30 01:23:58;;;;;;;19.23;13.57;;;;;;;;;;5079035;28;20961;-70
2022/06/30 01:26:27;;;;;;;21.03;11.97;;;;;;;;;;5079175;28;20462;-70
2022/06/30 01:28:54;;;;;;;17.53;13.87;;;;;;;;;;5079301;28;20447;-70
2022/06/30 01:31:22;;;;;;;17.20;15.30;;;;;;;;;;5078881;28;20474;-69
2022/06/30 01:33:50;;;;;;;15.07;12.60;;;;;;;;;;5079115;28;21006;-70
2022/06/30 01:36:17;;;;;;;14.83;11.97;;;;;;;;;;5079140;28;20821;-69
2022/06/30 01:38:46;;;;;;;14.40;12.90;;;;;;;;;;5079053;28;20478;-69
2022/06/30 01:41:15;;;;;;;22.27;13.37;;;;;;;;;;5078905;28;20474;-70
2022/06/30 01:43:42;;;;;;;22.67;14.33;;;;;;;;;;5079023;28;20452;-70
2022/06/30 01:46:09;;;;;;;21.60;14.40;;;;;;;;;;5079343;28;20456;-69
2022/06/30 01:48:37;;;;;;;20.43;13.90;;;;;;;;;;5079055;28;20446;-69
2022/06/30 01:51:04;;;;;;;19.40;15.23;;;;;;;;;;5077070;28;20471;-69
2022/06/30 01:53:31;;;;;;;19.27;14.37;;;;;;;;;;5075140;28;20458;-70
2022/06/30 01:55:59;;;;;;;14.20;11.10;;;;;;;;;;5075757;28;20451;-70
2022/06/30 01:58:27;;;;;;;12.50;11.30;;;;;;;;;;5075556;28;20509;-69
2022/06/30 02:00:54;;;;;;;13.80;11.60;;;;;;;;;;5075628;28;20482;-70
2022/06/30 02:03:21;;;;;;;13.90;12.50;;;;;;;;;;5075607;28;20455;-69
2022/06/30 02:05:48;;;;;;;12.23;11.03;;;;;;;;;;5075491;28;20810;-69
2022/06/30 02:08:15;;;;;;;17.03;12.07;;;;;;;;;;5075534;28;20451;-69
2022/06/30 02:10:42;;;;;;;12.63;11.27;;;;;;;;;;5075855;28;20448;-70
2022/06/30 02:13:10;;;;;;;12.70;11.50;;;;;;;;;;5075300;28;20831;-70
2022/06/30 02:15:38;;;;;;;12.00;10.73;;;;;;;;;;5075098;28;20522;-70
2022/06/30 02:18:06;;;;;;;12.23;11.03;;;;;;;;;;5075299;28;20494;-69
2022/06/30 02:20:33;;;;;;;13.07;11.63;;;;;;;;;;5075419;28;20448;-70
2022/06/30 02:23:01;;;;;;;12.23;10.47;;;;;;;;;;5075305;28;20444;-69
2022/06/30 02:25:31;;;;;;;12.10;10.90;;;;;;;;;;5074891;28;20972;-69
2022/06/30 02:27:58;;;;;;;12.77;10.90;;;;;;;;;;5075241;28;20831;-70
2022/06/30 02:30:27;;;;;;;12.47;11.17;;;;;;;;;;5075112;28;20486;-69
2022/06/30 02:32:54;;;;;;;13.00;11.33;;;;;;;;;;5075237;28;20463;-70
2022/06/30 02:35:21;;;;;;;14.30;11.50;;;;;;;;;;5074824;28;20788;-70
2022/06/30 02:37:49;;;;;;;14.47;12.00;;;;;;;;;;5074915;28;20490;-70
2022/06/30 02:40:16;;;;;;;15.37;12.60;;;;;;;;;;5074779;28;20451;-69
2022/06/30 02:42:43;;;;;;;15.93;12.13;;;;;;;;;;5074950;28;20472;-69
2022/06/30 02:45:11;;;;;;;12.33;11.13;;;;;;;;;;5074607;28;20459;-70
2022/06/30 02:47:40;;;;;;;12.87;10.97;;;;;;;;;;5074724;28;20452;-70
2022/06/30 02:50:09;;;;;;;12.73;11.00;;;;;;;;;;5074819;28;20820;-69
2022/06/30 02:52:36;;;;;;;11.90;10.70;;;;;;;;;;5074022;28;20468;-70
2022/06/30 02:55:04;;;;;;;15.00;11.60;;;;;;;;;;5074442;28;20448;-70
2022/06/30 02:57:31;;;;;;;16.00;14.10;;;;;;;;;;5074496;28;20454;-70
2022/06/30 02:59:58;;;;;;;13.77;12.30;;;;;;;;;;5074679;28;20444;-70
2022/06/30 03:02:25;;;;;;;17.43;14.57;;;;;;;;;;5074203;28;20977;-69
2022/06/30 03:04:54;;;;;;;22.97;17.37;;;;;;;;;;5074386;28;20455;-69
2022/06/30 03:07:21;;;;;;;20.57;16.07;;;;;;;;;;5074185;28;20873;-69
2022/06/30 03:09:48;;;;;;;21.67;16.30;;;;;;;;;;5074468;28;20452;-70
2022/06/30 03:12:15;;;;;;;59.57;17.73;;;;;;;;;;5074248;28;20482;-69
2022/06/30 03:14:42;;;;;;;38.23;17.30;;;;;;;;;;5074201;28;20543;-69
2022/06/30 03:17:09;;;;;;;68.57;17.57;;;;;;;;;;5074139;28;20458;-69
2022/06/30 03:19:36;;;;;;;62.27;17.60;;;;;;;;;;5074069;28;20813;-69
2022/06/30 03:22:05;;;;;;;77.27;16.83;;;;;;;;;;5074192;28;20487;-69
2022/06/30 03:24:32;;;;;;;52.87;17.53;;;;;;;;;;5073847;28;20459;-70
2022/06/30 03:26:59;;;;;;;76.70;17.97;;;;;;;;;;5074056;28;20455;-70
2022/06/30 03:29:26;;;;;;;65.63;17.37;;;;;;;;;;5073902;28;20448;-70
2022/06/30 03:31:54;;;;;;;71.57;17.17;;;;;;;;;;5073943;28;20467;-70
2022/06/30 03:34:21;;;;;;;74.60;15.80;;;;;;;;;;5073411;28;20462;-69
2022/06/30 03:36:48;;;;;;;24.33;14.20;;;;;;;;;;5073728;28;20452;-69
2022/06/30 03:39:16;;;;;;;20.60;15.57;;;;;;;;;;5073587;28;20487;-69
2022/06/30 03:41:43;;;;;;;17.33;13.00;;;;;;;;;;5073670;28;20483;-69
2022/06/30 03:44:10;;;;;;;13.20;11.80;;;;;;;;;;5073342;28;20834;-70
2022/06/30 03:46:37;;;;;;;11.47;10.37;;;;;;;;;;5073527;28;20447;-69
2022/06/30 03:49:04;;;;;;;12.17;10.97;;;;;;;;;;5073492;28;20450;-70
2022/06/30 03:51:32;;;;;;;12.67;9.93;;;;;;;;;;5073548;28;20471;-70
2022/06/30 03:53:59;;;;;;;17.70;10.30;;;;;;;;;;5073007;28;20474;-70
2022/06/30 03:56:27;;;;;;;9.80;8.27;;;;;;;;;;5073542;28;20447;-70
2022/06/30 03:58:54;;;;;;;8.03;6.67;;;;;;;;;;5073357;28;20992;-70
2022/06/30 04:01:21;;;;;;;8.40;7.10;;;;;;;;;;5073192;28;20517;-70
2022/06/30 04:03:49;;;;;;;6.90;6.20;;;;;;;;;;5073251;28;20451;-70
2022/06/30 04:06:16;;;;;;;7.57;5.83;;;;;;;;;;5073349;28;20451;-70
2022/06/30 04:08:43;;;;;;;12.17;8.20;;;;;;;;;;5073351;28;20446;-70
2022/06/30 04:11:10;;;;;;;12.00;8.80;;;;;;;;;;5073090;28;20471;-70
2022/06/30 04:13:38;;;;;;;12.00;8.10;;;;;;;;;;5073100;28;21024;-70
2022/06/30 04:16:06;;;;;;;13.00;7.63;;;;;;;;;;5072653;28;20454;-70
2022/06/30 04:18:33;;;;;;;11.63;7.50;;;;;;;;;;5073112;28;20487;-70
2022/06/30 04:21:00;;;;;;;11.07;6.80;;;;;;;;;;5073312;28;20478;-70
2022/06/30 04:23:27;;;;;;;8.27;6.20;;;;;;;;;;5072727;28;20463;-71
2022/06/30 04:25:54;;;;;;;11.07;6.07;;;;;;;;;;5073191;28;20458;-70
2022/06/30 04:28:21;;;;;;;10.83;6.17;;;;;;;;;;5072944;28;20456;-70
2022/06/30 04:33:35;;;;;;;6.63;4.70;;;;;;;;;;5072964;28;20427;-71
2022/06/30 04:36:02;;;;;;;6.30;5.20;;;;;;;;;;5073069;28;20811;-70
2022/06/30 04:38:29;;;;;;;7.00;5.10;;;;;;;;;;5072938;28;20495;-70
2022/06/30 04:43:41;;;;;;;10.23;6.73;;;;;;;;;;5073012;28;21142;-71
2022/06/30 04:46:09;;;;;;;6.93;6.03;;;;;;;;;;5072819;28;20455;-70
2022/06/30 04:48:36;;;;;;;8.50;6.77;;;;;;;;;;5073106;28;20507;-71
2022/06/30 04:51:04;;;;;;;7.50;6.40;;;;;;;;;;5072727;28;20468;-71
2022/06/30 04:53:31;;;;;;;9.93;8.10;;;;;;;;;;5071968;28;20952;-71
2022/06/30 04:55:58;;;;;;;12.30;7.37;;;;;;;;;;5072942;28;20452;-71
2022/06/30 04:58:25;;;;;;;10.10;8.67;;;;;;;;;;5072641;28;20862;-71
2022/06/30 05:00:52;;;;;;;7.50;6.60;;;;;;;;;;5072746;28;20471;-70
2022/06/30 05:03:21;;;;;;;7.73;6.93;;;;;;;;;;5072706;28;20967;-71
2022/06/30 05:05:48;;;;;;;8.70;7.90;;;;;;;;;;5072710;28;20447;-70
2022/06/30 05:08:15;;;;;;;9.33;8.27;;;;;;;;;;5072515;28;20474;-70
2022/06/30 05:10:42;;;;;;;9.70;8.80;;;;;;;;;;5072551;28;20451;-70
2022/06/30 05:13:09;;;;;;;10.33;8.90;;;;;;;;;;5072622;28;20474;-70
2022/06/30 05:15:37;;;;;;;10.77;9.03;;;;;;;;;;5072566;28;20459;-71
2022/06/30 05:18:04;;;;;;;10.57;9.67;;;;;;;;;;5072359;28;20450;-71
2022/06/30 05:20:32;;;;;;;11.23;10.33;;;;;;;;;;5072257;28;20503;-71
2022/06/30 05:22:59;;;;;;;12.03;10.93;;;;;;;;;;5072631;28;20479;-71
2022/06/30 05:28:11;;;;;;;11.90;10.80;;;;;;;;;;5075743;28;20427;-71
2022/06/30 05:30:39;;;;;;;12.67;11.57;;;;;;;;;;5076625;28;20438;-71
2022/06/30 05:33:06;;;;;;;6.57;6.07;;;;;;;;;;5081087;28;20954;-72
2022/06/30 05:35:34;;;;;;;6.90;5.23;;;;;;;;;;5095046;28;20796;-72
2022/06/30 05:38:02;;;;;;;8.67;5.77;;;;;;;;;;5096097;28;20483;-72
2022/06/30 05:40:29;;;;;;;9.07;8.13;;;;;;;;;;5095940;28;20493;-72
2022/06/30 05:42:56;;;;;;;8.10;6.87;;;;;;;;;;5096174;28;20450;-71
2022/06/30 05:45:23;;;;;;;11.23;5.50;;;;;;;;;;5095582;28;20966;-72
2022/06/30 05:47:52;;;;;;;4.90;4.17;;;;;;;;;;5096085;28;20449;-72
2022/06/30 05:50:20;;;;;;;9.93;6.13;;;;;;;;;;5095939;28;20973;-72
2022/06/30 05:52:50;;;;;;;8.70;5.53;;;;;;;;;;5095530;28;20810;-72
2022/06/30 05:55:17;;;;;;;11.50;5.97;;;;;;;;;;5095511;28;20454;-72
2022/06/30 05:57:55;;;;;;;14.97;7.37;;;;;;;;;;5095921;28;20970;-72
2022/06/30 06:00:23;;;;;;;11.40;6.53;;;;;;;;;;5095649;28;20838;-72
2022/06/30 06:02:50;;;;;;;11.53;7.77;;;;;;;;;;5095582;28;20519;-72
2022/06/30 06:05:18;;;;;;;9.47;7.20;;;;;;;;;;5085169;28;20461;-72
2022/06/30 06:07:45;;;;;;;8.37;6.90;;;;;;;;;;5093777;28;20827;-72
2022/06/30 06:10:14;;;;;;;13.00;8.10;;;;;;;;;;5093940;28;20446;-71
2022/06/30 06:12:42;;;;;;;8.67;6.60;;;;;;;;;;5094001;28;20470;-71
2022/06/30 06:15:10;;;;;;;9.97;6.43;;;;;;;;;;5093617;28;20504;-72
2022/06/30 06:17:41;;;;;;;7.87;6.40;;;;;;;;;;5093737;28;20457;-72
2022/06/30 06:20:09;;;;;;;8.33;5.80;;;;;;;;;;5093736;28;20485;-72
2022/06/30 06:22:36;;;;;;;7.90;6.10;;;;;;;;;;5094096;28;20470;-72
2022/06/30 06:25:03;;;;;;;12.53;7.20;;;;;;;;;;5093690;28;21049;-72
2022/06/30 06:27:33;;;;;;;8.97;6.20;;;;;;;;;;5093864;28;20450;-72
2022/06/30 06:30:00;;;;;;;5.30;4.80;;;;;;;;;;5093874;28;20477;-72
2022/06/30 06:32:28;;;;;;;10.13;6.70;;;;;;;;;;5093600;28;20505;-72
2022/06/30 06:34:55;;;;;;;10.27;7.50;;;;;;;;;;5093645;28;20927;-72
2022/06/30 06:37:22;;;;;;;7.60;6.53;;;;;;;;;;5093277;28;20464;-72
2022/06/30 06:39:49;;;;;;;7.93;6.93;;;;;;;;;;5093715;28;20489;-72
2022/06/30 06:42:16;;;;;;;9.80;7.30;;;;;;;;;;5093397;28;20993;-72
2022/06/30 06:44:47;;;;;;;6.77;5.33;;;;;;;;;;5093392;28;20821;-72
2022/06/30 06:47:14;;;;;;;10.50;6.40;;;;;;;;;;5093607;28;20804;-72
2022/06/30 06:49:42;;;;;;;7.20;6.50;;;;;;;;;;5093836;28;20442;-72
2022/06/30 06:52:09;;;;;;;10.43;8.10;;;;;;;;;;5094518;28;20466;-72
2022/06/30 06:54:36;;;;;;;9.40;6.20;;;;;;;;;;5094194;28;20468;-72
2022/06/30 06:57:03;;;;;;;10.63;6.60;;;;;;;;;;5094392;28;20450;-72
2022/06/30 06:59:30;;;;;;;6.27;5.63;;;;;;;;;;5094704;28;20488;-72
2022/06/30 07:01:59;;;;;;;7.27;6.57;;;;;;;;;;5094667;28;20466;-72
2022/06/30 07:04:26;;;;;;;7.13;6.43;;;;;;;;;;5094435;28;20815;-72
2022/06/30 07:06:53;;;;;;;8.27;7.40;;;;;;;;;;5094669;28;20454;-72
2022/06/30 07:09:20;;;;;;;7.90;7.30;;;;;;;;;;5094484;28;20450;-72
2022/06/30 07:11:48;;;;;;;7.20;6.50;;;;;;;;;;5094729;28;20975;-72
2022/06/30 07:14:15;;;;;;;7.43;6.93;;;;;;;;;;5094431;28;20888;-72
2022/06/30 07:16:42;;;;;;;7.53;6.93;;;;;;;;;;5094493;28;20450;-72
2022/06/30 07:19:10;;;;;;;11.20;7.13;;;;;;;;;;5094412;28;20481;-72
2022/06/30 07:21:38;;;;;;;7.53;6.93;;;;;;;;;;5094376;28;20477;-72
2022/06/30 07:24:05;;;;;;;7.90;7.20;;;;;;;;;;5094133;28;20837;-72
2022/06/30 07:26:32;;;;;;;7.00;6.43;;;;;;;;;;5094310;28;20450;-72
2022/06/30 07:28:59;;;;;;;7.23;6.63;;;;;;;;;;5094281;28;20954;-72
2022/06/30 07:31:26;;;;;;;6.97;6.10;;;;;;;;;;5094098;28;20470;-72
2022/06/30 07:33:53;;;;;;;5.70;5.20;;;;;;;;;;5093916;28;20446;-73
2022/06/30 07:36:22;;;;;;;6.87;6.17;;;;;;;;;;5093971;28;20446;-73
2022/06/30 07:38:50;;;;;;;9.70;6.30;;;;;;;;;;5094188;28;20935;-73
2022/06/30 07:41:17;;;;;;;9.40;6.17;;;;;;;;;;5093819;28;20909;-72
2022/06/30 07:43:44;;;;;;;6.80;6.10;;;;;;;;;;5093824;28;20482;-72
2022/06/30 07:46:12;;;;;;;10.50;4.97;;;;;;;;;;5094026;28;20460;-72
2022/06/30 07:48:39;;;;;;;6.60;5.00;;;;;;;;;;5093952;28;20822;-72
2022/06/30 07:51:07;;;;;;;4.20;3.80;;;;;;;;;;5093331;28;20466;-72
2022/06/30 07:53:35;;;;;;;4.50;3.60;;;;;;;;;;5085600;28;20843;-72
2022/06/30 07:56:02;;;;;;;3.87;3.57;;;;;;;;;;5091362;28;20463;-72
2022/06/30 07:58:29;;;;;;;7.33;3.90;;;;;;;;;;5081633;28;20462;-73
2022/06/30 08:00:57;;;;;;;4.83;3.60;;;;;;;;;;5073288;28;20491;-72
2022/06/30 08:03:24;;;;;;;5.30;3.47;;;;;;;;;;5086473;28;20443;-72
2022/06/30 08:05:51;;;;;;;4.00;2.67;;;;;;;;;;5073464;28;20474;-72
2022/06/30 08:08:18;;;;;;;3.70;3.30;;;;;;;;;;5073220;28;20457;-72
2022/06/30 08:10:46;;;;;;;3.43;2.90;;;;;;;;;;5073302;28;20455;-72
2022/06/30 08:13:14;;;;;;;4.57;3.63;;;;;;;;;;5073352;28;20447;-72
2022/06/30 08:15:41;;;;;;;5.63;3.63;;;;;;;;;;5072993;28;20455;-72
2022/06/30 08:18:09;;;;;;;3.77;3.30;;;;;;;;;;5073344;28;20823;-72
2022/06/30 08:20:36;;;;;;;7.50;3.50;;;;;;;;;;5073039;28;20478;-72
2022/06/30 08:23:03;;;;;;;6.97;4.53;;;;;;;;;;5073139;28;20807;-72
2022/06/30 08:25:30;;;;;;;4.20;3.80;;;;;;;;;;5072998;28;20459;-72
2022/06/30 08:27:59;;;;;;;7.70;4.93;;;;;;;;;;5073076;28;20454;-72
2022/06/30 08:30:26;;;;;;;6.20;4.60;;;;;;;;;;5072931;28;20482;-71
2022/06/30 08:32:53;;;;;;;7.67;4.37;;;;;;;;;;5073111;28;20943;-72
2022/06/30 08:35:20;;;;;;;4.70;4.10;;;;;;;;;;5072914;28;20451;-72
2022/06/30 08:37:47;;;;;;;5.23;4.60;;;;;;;;;;5074276;28;20451;-72
2022/06/30 08:43:02;;;;;;;5.80;5.13;;;;;;;;;;5091655;28;20507;-72
2022/06/30 08:45:30;;;;;;;7.13;4.83;;;;;;;;;;5091870;28;20454;-72
2022/06/30 08:47:57;;;;;;;6.10;4.53;;;;;;;;;;5091839;28;20800;-72
2022/06/30 08:50:24;;;;;;;4.90;4.07;;;;;;;;;;5091258;28;20453;-72
2022/06/30 08:52:53;;;;;;;11.67;4.90;;;;;;;;;;5091041;28;21097;-72
2022/06/30 08:55:22;;;;;;;5.17;4.27;;;;;;;;;;5091322;28;20534;-72
2022/06/30 08:57:49;;;;;;;11.03;8.07;;;;;;;;;;5091464;28;20455;-72
2022/06/30 09:00:18;;;;;;;6.60;4.10;;;;;;;;;;5091660;28;20478;-72
2022/06/30 09:02:46;;;;;;;5.63;5.13;;;;;;;;;;5095525;28;20843;-72
2022/06/30 09:05:14;;;;;;;6.63;4.77;;;;;;;;;;5095333;28;20454;-72
2022/06/30 09:07:41;;;;;;;5.47;4.67;;;;;;;;;;5095953;28;20453;-72
2022/06/30 09:10:09;;;;;;;5.57;5.07;;;;;;;;;;5095535;28;20446;-72
2022/06/30 09:12:36;;;;;;;5.13;4.63;;;;;;;;;;5094019;28;20506;-72
2022/06/30 09:15:04;;;;;;;8.70;5.37;;;;;;;;;;5093572;28;20450;-72
2022/06/30 09:17:32;;;;;;;7.13;5.20;;;;;;;;;;5094033;28;20452;-72
2022/06/30 09:20:00;;;;;;;5.13;4.63;;;;;;;;;;5095234;28;20536;-72
2022/06/30 09:22:29;;;;;;;5.10;4.70;;;;;;;;;;5095095;28;20481;-72
2022/06/30 09:25:00;;;;;;;5.90;5.30;;;;;;;;;;5094917;28;20481;-72
2022/06/30 09:27:29;;;;;;;5.67;4.90;;;;;;;;;;5095126;28;20450;-72
2022/06/30 09:29:58;;;;;;;6.53;5.53;;;;;;;;;;5095204;28;20453;-72
2022/06/30 09:32:26;;;;;;;5.63;5.03;;;;;;;;;;5094934;28;20618;-72
2022/06/30 09:34:54;;;;;;;5.53;5.00;;;;;;;;;;5095220;28;20475;-72
2022/06/30 09:37:23;;;;;;;10.90;4.50;;;;;;;;;;5094902;28;20493;-72
2022/06/30 09:39:51;;;;;;;4.43;4.03;;;;;;;;;;5095252;28;20528;-71
2022/06/30 09:42:33;;;;;;;12.30;4.50;;;;;;;;;;5094701;28;20478;-72
2022/06/30 09:45:00;;;;;;;6.80;4.00;;;;;;;;;;5094598;28;20452;-72
2022/06/30 09:47:27;;;;;;;4.73;4.23;;;;;;;;;;5094772;28;20450;-71
2022/06/30 09:49:56;;;;;;;8.53;4.27;;;;;;;;;;5096218;28;20438;-72
2022/06/30 09:52:23;;;;;;;10.20;4.87;;;;;;;;;;5095660;28;20477;-72
2022/06/30 09:54:55;;;;;;;5.00;4.20;;;;;;;;;;5095540;28;20446;-71
2022/06/30 09:57:23;;;;;;;5.10;3.97;;;;;;;;;;5096062;28;20454;-71
2022/06/30 09:59:59;;;;;;;4.97;4.20;;;;;;;;;;5095832;28;20476;-71
2022/06/30 10:02:31;;;;;;;5.07;4.30;;;;;;;;;;5095742;28;20561;-72
2022/06/30 10:04:59;;;;;;;4.90;4.23;;;;;;;;;;5095664;28;20447;-72
2022/06/30 10:07:27;;;;;;;5.70;5.30;;;;;;;;;;5095737;28;20450;-72
2022/06/30 10:09:54;;;;;;;5.43;5.03;;;;;;;;;;5095805;28;20943;-71
2022/06/30 10:12:22;;;;;;;7.50;4.30;;;;;;;;;;5094470;28;20474;-72
2022/06/30 10:14:51;;;;;;;4.97;4.23;;;;;;;;;;5095368;28;20550;-72
2022/06/30 10:17:20;;;;;;;6.43;4.90;;;;;;;;;;5096031;28;20455;-72
2022/06/30 10:19:47;;;;;;;5.97;5.37;;;;;;;;;;5095681;28;20447;-72
2022/06/30 10:22:16;;;;;;;4.60;4.20;;;;;;;;;;5095574;28;20471;-72
2022/06/30 10:24:45;;;;;;;4.80;4.40;;;;;;;;;;5095204;28;20814;-72
2022/06/30 10:27:13;;;;;;;5.00;4.33;;;;;;;;;;5095405;28;20882;-71
2022/06/30 10:29:40;;;;;;;5.47;4.97;;;;;;;;;;5095477;28;20450;-72
2022/06/30 10:32:10;;;;;;;6.27;4.63;;;;;;;;;;5095439;28;20884;-72
2022/06/30 10:34:40;;;;;;;7.13;5.23;;;;;;;;;;5095251;28;20473;-72
2022/06/30 10:37:09;;;;;;;6.63;4.40;;;;;;;;;;5095212;28;20835;-72
2022/06/30 10:39:47;;;;;;;5.10;4.60;;;;;;;;;;5095120;28;20458;-72
2022/06/30 10:42:29;;;;;;;5.20;4.70;;;;;;;;;;5095030;28;20462;-72
2022/06/30 10:44:56;;;;;;;7.50;4.50;;;;;;;;;;5094789;28;20474;-72
2022/06/30 10:47:24;;;;;;;5.93;5.03;;;;;;;;;;5095290;28;20454;-72
2022/06/30 10:49:55;;;;;;;6.53;5.43;;;;;;;;;;5094998;28;20459;-72
2022/06/30 10:52:23;;;;;;;5.80;4.53;;;;;;;;;;5094789;28;20474;-72
2022/06/30 10:54:59;;;;;;;8.07;4.80;;;;;;;;;;5094635;28;20896;-72
2022/06/30 10:57:26;;;;;;;5.13;4.63;;;;;;;;;;5094899;28;20446;-72
2022/06/30 10:59:54;;;;;;;7.10;4.80;;;;;;;;;;5095082;28;20449;-72
2022/06/30 11:02:22;;;;;;;5.40;4.90;;;;;;;;;;5094617;28;20468;-71
2022/06/30 11:04:49;;;;;;;4.70;4.20;;;;;;;;;;5094670;28;20461;-72
2022/06/30 11:07:20;;;;;;;5.00;4.30;;;;;;;;;;5094579;28;20813;-71
2022/06/30 11:10:02;;;;;;;5.63;4.90;;;;;;;;;;5094686;28;20496;-71
2022/06/30 11:12:48;;;;;;;6.23;5.37;;;;;;;;;;5094516;28;20462;-71
2022/06/30 11:15:16;;;;;;;9.83;4.80;;;;;;;;;;5094392;28;20446;-72
2022/06/30 11:17:44;;;;;;;5.80;5.03;;;;;;;;;;5094565;28;20454;-72
2022/06/30 11:20:12;;;;;;;5.20;4.73;;;;;;;;;;5094349;28;20451;-71
2022/06/30 11:22:39;;;;;;;5.30;4.90;;;;;;;;;;5094390;28;20458;-72
2022/06/30 11:25:08;;;;;;;7.00;5.10;;;;;;;;;;5093885;28;20466;-72
2022/06/30 11:27:36;;;;;;;6.27;5.77;;;;;;;;;;5094360;28;20447;-72
2022/06/30 11:30:04;;;;;;;5.13;4.70;;;;;;;;;;5094254;28;20503;-72
2022/06/30 11:32:33;;;;;;;9.10;4.93;;;;;;;;;;5094303;28;20477;-72
2022/06/30 11:35:01;;;;;;;5.47;5.00;;;;;;;;;;5094087;28;20469;-72
2022/06/30 11:37:28;;;;;;;7.03;4.57;;;;;;;;;;5094089;28;20447;-72
2022/06/30 11:39:58;;;;;;;5.00;4.60;;;;;;;;;;5093940;28;20511;-72
2022/06/30 11:42:26;;;;;;;6.47;5.80;;;;;;;;;;5093850;28;20494;-72
2022/06/30 11:44:53;;;;;;;5.93;4.70;;;;;;;;;;5093899;28;20455;-72
2022/06/30 11:47:22;;;;;;;5.60;4.77;;;;;;;;;;5093977;28;20446;-72
2022/06/30 11:49:51;;;;;;;6.00;4.57;;;;;;;;;;5093942;28;20534;-72
2022/06/30 11:52:20;;;;;;;4.67;4.27;;;;;;;;;;5093693;28;20826;-73
2022/06/30 11:54:49;;;;;;;7.20;5.20;;;;;;;;;;5093272;28;20963;-73
2022/06/30 11:57:16;;;;;;;6.53;4.93;;;;;;;;;;5093700;28;20447;-73
2022/06/30 11:59:44;;;;;;;6.63;5.20;;;;;;;;;;5093912;28;20446;-72
2022/06/30 12:02:11;;;;;;;6.23;5.03;;;;;;;;;;5093548;28;20846;-72
2022/06/30 12:04:41;;;;;;;5.73;4.60;;;;;;;;;;5093526;28;20451;-73
2022/06/30 12:07:10;;;;;;;8.40;4.97;;;;;;;;;;5093487;28;20537;-72
2022/06/30 12:09:37;;;;;;;6.50;5.60;;;;;;;;;;5093473;28;20797;-72
2022/06/30 12:12:05;;;;;;;6.63;5.57;;;;;;;;;;5093436;28;20483;-72
2022/06/30 12:14:33;;;;;;;6.30;4.83;;;;;;;;;;5093416;28;20454;-72
2022/06/30 12:17:00;;;;;;;5.80;4.80;;;;;;;;;;5093577;28;20944;-73
2022/06/30 12:19:28;;;;;;;5.50;4.83;;;;;;;;;;5093281;28;20967;-73
2022/06/30 12:21:55;;;;;;;6.50;5.10;;;;;;;;;;5093158;28;20487;-72
2022/06/30 12:24:24;;;;;;;6.80;5.17;;;;;;;;;;5093248;28;20545;-72
2022/06/30 12:26:52;;;;;;;5.80;5.17;;;;;;;;;;5093297;28;20541;-72
2022/06/30 12:29:20;;;;;;;6.23;5.73;;;;;;;;;;5093253;28;20458;-72
2022/06/30 12:31:57;;;;;;;7.77;5.10;;;;;;;;;;5093146;28;20493;-73
2022/06/30 12:34:25;;;;;;;6.10;4.83;;;;;;;;;;5093026;28;20454;-72
2022/06/30 12:36:52;;;;;;;6.23;5.33;;;;;;;;;;5092919;28;20451;-73
2022/06/30 12:39:19;;;;;;;6.07;5.53;;;;;;;;;;5093117;28;20455;-74
2022/06/30 12:41:48;;;;;;;7.13;6.50;;;;;;;;;;5093048;28;20491;-74
2022/06/30 12:44:15;;;;;;;6.20;5.60;;;;;;;;;;5093025;28;20454;-74
2022/06/30 12:46:46;;;;;;;6.53;5.70;;;;;;;;;;5093198;28;20507;-74
2022/06/30 12:49:22;;;;;;;6.33;5.73;;;;;;;;;;5092959;28;20455;-75
2022/06/30 12:51:49;;;;;;;12.17;6.07;;;;;;;;;;5093225;28;20466;-74
2022/06/30 12:54:17;;;;;;;7.93;5.60;;;;;;;;;;5092844;28;21003;-74
2022/06/30 12:56:50;;;;;;;5.77;5.13;;;;;;;;;;5093163;28;20460;-72
2022/06/30 12:59:19;;;;;;;10.83;5.90;;;;;;;;;;5092950;28;20455;-72
2022/06/30 13:01:47;;;;;;;7.27;6.57;;;;;;;;;;5091940;28;20494;-72
2022/06/30 13:04:19;;;;;;;9.07;5.53;;;;;;;;;;5092259;28;20454;-72
2022/06/30 13:06:47;;;;;;;6.93;5.23;;;;;;;;;;5092999;28;20508;-72
2022/06/30 13:09:16;;;;;;;9.60;5.80;;;;;;;;;;5092683;28;20835;-72
2022/06/30 13:11:46;;;;;;;5.53;5.03;;;;;;;;;;5092633;28;20463;-72
2022/06/30 13:14:14;;;;;;;6.17;5.23;;;;;;;;;;5092474;28;20457;-72
2022/06/30 13:16:43;;;;;;;9.40;6.63;;;;;;;;;;5092861;28;20496;-72
2022/06/30 13:19:10;;;;;;;7.10;6.40;;;;;;;;;;5092518;28;20451;-73
2022/06/30 13:21:38;;;;;;;6.23;5.63;;;;;;;;;;5092289;28;20495;-73
2022/06/30 13:24:05;;;;;;;7.73;5.90;;;;;;;;;;5092303;28;20466;-73
2022/06/30 13:26:32;;;;;;;8.10;5.80;;;;;;;;;;5092538;28;20454;-72
2022/06/30 13:28:59;;;;;;;7.67;5.80;;;;;;;;;;5092413;28;20466;-72
2022/06/30 13:31:26;;;;;;;7.90;4.97;;;;;;;;;;5092166;28;20463;-72
2022/06/30 13:33:56;;;;;;;10.73;5.17;;;;;;;;;;5092251;28;20453;-72
2022/06/30 13:36:23;;;;;;;7.40;5.50;;;;;;;;;;5088278;28;20541;-72
2022/06/30 13:38:50;;;;;;;9.43;5.37;;;;;;;;;;5092469;28;20500;-72
2022/06/30 13:41:17;;;;;;;6.17;5.57;;;;;;;;;;5092456;28;20493;-72
2022/06/30 13:43:45;;;;;;;8.27;5.43;;;;;;;;;;5092457;28;20450;-72
2022/06/30 13:46:12;;;;;;;7.70;5.10;;;;;;;;;;5092449;28;20453;-72
2022/06/30 13:48:39;;;;;;;7.87;6.00;;;;;;;;;;5094844;28;20447;-72
2022/06/30 13:51:07;;;;;;;17.47;6.60;;;;;;;;;;5096179;28;20482;-72
2022/06/30 13:53:35;;;;;;;5.57;5.00;;;;;;;;;;5096057;28;20455;-72
2022/06/30 13:56:02;;;;;;;5.30;4.77;;;;;;;;;;5096174;28;20462;-72
2022/06/30 13:58:29;;;;;;;6.00;5.40;;;;;;;;;;5096006;28;20500;-72
2022/06/30 14:00:56;;;;;;;5.53;5.00;;;;;;;;;;5095705;28;20466;-72
2022/06/30 14:03:23;;;;;;;5.93;5.10;;;;;;;;;;5095763;28;20486;-72
2022/06/30 14:05:51;;;;;;;6.43;4.80;;;;;;;;;;5095827;28;20943;-72
2022/06/30 14:08:20;;;;;;;9.10;5.37;;;;;;;;;;5095778;28;20446;-72
2022/06/30 14:10:47;;;;;;;6.33;5.10;;;;;;;;;;5095717;28;20451;-72
2022/06/30 14:13:14;;;;;;;5.33;4.93;;;;;;;;;;5095682;28;20439;-72
2022/06/30 14:15:41;;;;;;;5.63;4.97;;;;;;;;;;5095622;28;20454;-72
2022/06/30 14:18:10;;;;;;;5.23;4.60;;;;;;;;;;5095377;28;20454;-72
2022/06/30 14:20:37;;;;;;;5.07;4.57;;;;;;;;;;5095505;28;20545;-72
2022/06/30 14:23:04;;;;;;;5.67;4.70;;;;;;;;;;5095319;28;21026;-72
2022/06/30 14:25:34;;;;;;;9.90;5.17;;;;;;;;;;5095146;28;20809;-72
2022/06/30 14:28:01;;;;;;;9.40;5.10;;;;;;;;;;5094905;28;20451;-72
2022/06/30 14:30:28;;;;;;;5.47;4.47;;;;;;;;;;5095304;28;20796;-72
2022/06/30 14:32:56;;;;;;;8.90;4.57;;;;;;;;;;5094967;28;20451;-72
2022/06/30 14:35:23;;;;;;;6.27;4.67;;;;;;;;;;5095012;28;20454;-72
2022/06/30 14:37:51;;;;;;;5.03;4.63;;;;;;;;;;5095312;28;20446;-72
2022/06/30 14:40:18;;;;;;;6.50;4.30;;;;;;;;;;5095314;28;20457;-72
2022/06/30 14:42:53;;;;;;;11.00;5.00;;;;;;;;;;5094970;28;20863;-71
2022/06/30 14:45:21;;;;;;;6.37;4.00;;;;;;;;;;5094773;28;20450;-72
2022/06/30 14:47:49;;;;;;;7.63;4.67;;;;;;;;;;5095194;28;20462;-72
2022/06/30 14:50:17;;;;;;;9.80;4.20;;;;;;;;;;5094792;28;20451;-72